sensor_id;sensor_type;location;lat;lon;timestamp;P1;durP1;ratioP1;P2;durP2;ratioP2
26098;SDS011;13860;52.370;6.764;2024-02-21T00:02:19;37.63;;;14.20;;
26098;SDS011;13860;52.370;6.764;2024-02-21T00:05:27;35.70;;;15.45;;
26098;SDS011;13860;52.370;6.764;2024-02-21T00:08:35;38.58;;;15.30;;
26098;SDS011;13860;52.370;6.764;2024-02-21T00:11:43;31.85;;;13.90;;
26098;SDS011;13860;52.370;6.764;2024-02-21T00:14:49;38.30;;;13.80;;
26098;SDS011;13860;52.370;6.764;2024-02-21T00:17:57;33.15;;;13.75;;
26098;SDS011;13860;52.370;6.764;2024-02-21T00:21:03;39.33;;;14.07;;
26098;SDS011;13860;52.370;6.764;2024-02-21T00:24:13;35.58;;;15.02;;
26098;SDS011;13860;52.370;6.764;2024-02-21T00:27:19;42.90;;;14.90;;
26098;SDS011;13860;52.370;6.764;2024-02-21T00:30:26;32.20;;;13.70;;
26098;SDS011;13860;52.370;6.764;2024-02-21T00:33:32;34.25;;;13.30;;
26098;SDS011;13860;52.370;6.764;2024-02-21T00:36:39;47.03;;;13.73;;
26098;SDS011;13860;52.370;6.764;2024-02-21T00:39:48;33.80;;;14.38;;
26098;SDS011;13860;52.370;6.764;2024-02-21T00:42:55;38.08;;;13.98;;
26098;SDS011;13860;52.370;6.764;2024-02-21T00:46:01;36.08;;;14.20;;
26098;SDS011;13860;52.370;6.764;2024-02-21T00:49:08;40.22;;;12.93;;
26098;SDS011;13860;52.370;6.764;2024-02-21T00:52:14;33.22;;;12.00;;
26098;SDS011;13860;52.370;6.764;2024-02-21T00:55:24;33.00;;;12.93;;
26098;SDS011;13860;52.370;6.764;2024-02-21T00:58:30;26.25;;;12.55;;
26098;SDS011;13860;52.370;6.764;2024-02-21T01:01:37;31.63;;;12.15;;
26098;SDS011;13860;52.370;6.764;2024-02-21T01:04:44;37.53;;;12.85;;
26098;SDS011;13860;52.370;6.764;2024-02-21T01:07:52;36.40;;;13.30;;
26098;SDS011;13860;52.370;6.764;2024-02-21T01:11:00;34.10;;;13.68;;
26098;SDS011;13860;52.370;6.764;2024-02-21T01:14:08;32.85;;;12.93;;
26098;SDS011;13860;52.370;6.764;2024-02-21T01:17:13;36.50;;;12.45;;
26098;SDS011;13860;52.370;6.764;2024-02-21T01:20:21;25.65;;;11.40;;
26098;SDS011;13860;52.370;6.764;2024-02-21T01:23:26;31.92;;;11.85;;
26098;SDS011;13860;52.370;6.764;2024-02-21T01:26:37;30.80;;;12.82;;
26098;SDS011;13860;52.370;6.764;2024-02-21T01:29:42;28.85;;;12.25;;
26098;SDS011;13860;52.370;6.764;2024-02-21T01:32:50;34.47;;;12.85;;
26098;SDS011;13860;52.370;6.764;2024-02-21T01:35:56;28.75;;;13.05;;
26098;SDS011;13860;52.370;6.764;2024-02-21T01:39:04;25.05;;;10.75;;
26098;SDS011;13860;52.370;6.764;2024-02-21T01:42:12;27.60;;;10.88;;
26098;SDS011;13860;52.370;6.764;2024-02-21T01:45:25;34.63;;;12.23;;
26098;SDS011;13860;52.370;6.764;2024-02-21T01:48:30;27.77;;;11.00;;
26098;SDS011;13860;52.370;6.764;2024-02-21T01:51:38;31.30;;;11.18;;
26098;SDS011;13860;52.370;6.764;2024-02-21T01:54:44;30.75;;;11.50;;
26098;SDS011;13860;52.370;6.764;2024-02-21T01:57:57;28.75;;;10.85;;
26098;SDS011;13860;52.370;6.764;2024-02-21T02:01:02;30.77;;;10.60;;
26098;SDS011;13860;52.370;6.764;2024-02-21T02:04:30;26.63;;;11.82;;
26098;SDS011;13860;52.370;6.764;2024-02-21T02:07:36;40.80;;;11.48;;
26098;SDS011;13860;52.370;6.764;2024-02-21T02:10:43;31.88;;;11.32;;
26098;SDS011;13860;52.370;6.764;2024-02-21T02:13:52;35.13;;;12.40;;
26098;SDS011;13860;52.370;6.764;2024-02-21T02:17:00;33.58;;;10.65;;
26098;SDS011;13860;52.370;6.764;2024-02-21T02:20:06;27.70;;;10.73;;
26098;SDS011;13860;52.370;6.764;2024-02-21T02:23:21;34.05;;;11.32;;
26098;SDS011;13860;52.370;6.764;2024-02-21T02:26:30;40.05;;;12.20;;
26098;SDS011;13860;52.370;6.764;2024-02-21T02:29:37;29.92;;;11.15;;
26098;SDS011;13860;52.370;6.764;2024-02-21T02:32:44;39.67;;;12.23;;
26098;SDS011;13860;52.370;6.764;2024-02-21T02:35:52;26.70;;;10.43;;
26098;SDS011;13860;52.370;6.764;2024-02-21T02:39:00;24.58;;;11.45;;
26098;SDS011;13860;52.370;6.764;2024-02-21T02:42:08;29.63;;;11.80;;
26098;SDS011;13860;52.370;6.764;2024-02-21T02:45:14;31.35;;;11.55;;
26098;SDS011;13860;52.370;6.764;2024-02-21T02:48:22;24.55;;;11.05;;
26098;SDS011;13860;52.370;6.764;2024-02-21T02:51:28;27.95;;;11.02;;
26098;SDS011;13860;52.370;6.764;2024-02-21T02:54:38;26.95;;;10.35;;
26098;SDS011;13860;52.370;6.764;2024-02-21T02:57:43;27.13;;;10.40;;
26098;SDS011;13860;52.370;6.764;2024-02-21T03:00:51;25.55;;;10.85;;
26098;SDS011;13860;52.370;6.764;2024-02-21T03:03:57;28.85;;;10.55;;
26098;SDS011;13860;52.370;6.764;2024-02-21T03:07:04;35.17;;;11.80;;
26098;SDS011;13860;52.370;6.764;2024-02-21T03:10:13;29.95;;;10.73;;
26098;SDS011;13860;52.370;6.764;2024-02-21T03:13:22;26.05;;;11.30;;
26098;SDS011;13860;52.370;6.764;2024-02-21T03:16:27;25.13;;;10.45;;
26098;SDS011;13860;52.370;6.764;2024-02-21T03:19:35;30.42;;;10.95;;
26098;SDS011;13860;52.370;6.764;2024-02-21T03:22:40;31.10;;;10.82;;
26098;SDS011;13860;52.370;6.764;2024-02-21T03:25:51;30.10;;;11.45;;
26098;SDS011;13860;52.370;6.764;2024-02-21T03:28:56;32.55;;;11.55;;
26098;SDS011;13860;52.370;6.764;2024-02-21T03:32:04;28.88;;;10.82;;
26098;SDS011;13860;52.370;6.764;2024-02-21T03:35:09;35.05;;;11.20;;
26098;SDS011;13860;52.370;6.764;2024-02-21T03:38:17;24.80;;;10.52;;
26098;SDS011;13860;52.370;6.764;2024-02-21T03:41:26;26.55;;;10.65;;
26098;SDS011;13860;52.370;6.764;2024-02-21T03:44:36;25.73;;;11.43;;
26098;SDS011;13860;52.370;6.764;2024-02-21T03:47:41;40.60;;;11.60;;
26098;SDS011;13860;52.370;6.764;2024-02-21T03:50:49;35.53;;;11.55;;
26098;SDS011;13860;52.370;6.764;2024-02-21T03:53:54;27.20;;;11.15;;
26098;SDS011;13860;52.370;6.764;2024-02-21T03:57:04;31.83;;;10.30;;
26098;SDS011;13860;52.370;6.764;2024-02-21T04:00:10;27.52;;;11.18;;
26098;SDS011;13860;52.370;6.764;2024-02-21T04:03:19;33.50;;;11.35;;
26098;SDS011;13860;52.370;6.764;2024-02-21T04:06:24;33.78;;;12.05;;
26098;SDS011;13860;52.370;6.764;2024-02-21T04:09:32;26.05;;;11.07;;
26098;SDS011;13860;52.370;6.764;2024-02-21T04:12:40;33.92;;;11.25;;
26098;SDS011;13860;52.370;6.764;2024-02-21T04:15:48;29.45;;;11.18;;
26098;SDS011;13860;52.370;6.764;2024-02-21T04:18:53;29.50;;;11.45;;
26098;SDS011;13860;52.370;6.764;2024-02-21T04:22:01;19.45;;;10.05;;
26098;SDS011;13860;52.370;6.764;2024-02-21T04:25:07;33.22;;;11.85;;
26098;SDS011;13860;52.370;6.764;2024-02-21T04:28:17;30.10;;;12.38;;
26098;SDS011;13860;52.370;6.764;2024-02-21T04:31:23;30.13;;;11.25;;
26098;SDS011;13860;52.370;6.764;2024-02-21T04:34:31;28.08;;;10.40;;
26098;SDS011;13860;52.370;6.764;2024-02-21T04:37:36;24.00;;;10.85;;
26098;SDS011;13860;52.370;6.764;2024-02-21T04:40:44;30.92;;;11.15;;
26098;SDS011;13860;52.370;6.764;2024-02-21T04:43:52;27.70;;;11.52;;
26098;SDS011;13860;52.370;6.764;2024-02-21T04:47:00;34.03;;;11.80;;
26098;SDS011;13860;52.370;6.764;2024-02-21T04:50:06;26.80;;;12.15;;
26098;SDS011;13860;52.370;6.764;2024-02-21T04:53:14;25.23;;;11.65;;
26098;SDS011;13860;52.370;6.764;2024-02-21T04:56:20;34.47;;;11.55;;
26098;SDS011;13860;52.370;6.764;2024-02-21T04:59:31;27.70;;;11.13;;
26098;SDS011;13860;52.370;6.764;2024-02-21T05:02:37;22.58;;;10.30;;
26098;SDS011;13860;52.370;6.764;2024-02-21T05:05:44;33.58;;;11.45;;
26098;SDS011;13860;52.370;6.764;2024-02-21T05:08:50;31.05;;;11.63;;
26098;SDS011;13860;52.370;6.764;2024-02-21T05:11:59;21.27;;;11.13;;
26098;SDS011;13860;52.370;6.764;2024-02-21T05:15:08;31.42;;;11.00;;
26098;SDS011;13860;52.370;6.764;2024-02-21T05:18:15;32.50;;;11.25;;
26098;SDS011;13860;52.370;6.764;2024-02-21T05:21:22;32.15;;;12.32;;
26098;SDS011;13860;52.370;6.764;2024-02-21T05:24:32;34.72;;;12.95;;
26098;SDS011;13860;52.370;6.764;2024-02-21T05:27:38;35.60;;;12.57;;
26098;SDS011;13860;52.370;6.764;2024-02-21T05:30:48;28.65;;;11.52;;
26098;SDS011;13860;52.370;6.764;2024-02-21T05:33:54;32.45;;;11.63;;
26098;SDS011;13860;52.370;6.764;2024-02-21T05:37:05;32.13;;;12.95;;
26098;SDS011;13860;52.370;6.764;2024-02-21T05:40:10;35.20;;;11.27;;
26098;SDS011;13860;52.370;6.764;2024-02-21T05:43:19;25.88;;;10.27;;
26098;SDS011;13860;52.370;6.764;2024-02-21T05:46:27;26.38;;;10.30;;
26098;SDS011;13860;52.370;6.764;2024-02-21T05:49:34;20.58;;;10.10;;
26098;SDS011;13860;52.370;6.764;2024-02-21T05:52:40;26.15;;;10.23;;
26098;SDS011;13860;52.370;6.764;2024-02-21T05:55:48;22.60;;;9.45;;
26098;SDS011;13860;52.370;6.764;2024-02-21T05:58:53;26.70;;;9.20;;
26098;SDS011;13860;52.370;6.764;2024-02-21T06:02:03;21.05;;;8.82;;
26098;SDS011;13860;52.370;6.764;2024-02-21T06:05:09;25.58;;;9.25;;
26098;SDS011;13860;52.370;6.764;2024-02-21T06:08:17;23.05;;;9.52;;
26098;SDS011;13860;52.370;6.764;2024-02-21T06:11:23;33.72;;;9.75;;
26098;SDS011;13860;52.370;6.764;2024-02-21T06:14:30;27.15;;;9.48;;
26098;SDS011;13860;52.370;6.764;2024-02-21T06:17:38;19.08;;;8.18;;
26098;SDS011;13860;52.370;6.764;2024-02-21T06:20:46;22.10;;;8.52;;
26098;SDS011;13860;52.370;6.764;2024-02-21T06:23:52;22.52;;;10.20;;
26098;SDS011;13860;52.370;6.764;2024-02-21T06:26:59;23.27;;;9.00;;
26098;SDS011;13860;52.370;6.764;2024-02-21T06:30:07;29.92;;;9.32;;
26098;SDS011;13860;52.370;6.764;2024-02-21T06:33:18;28.55;;;9.30;;
26098;SDS011;13860;52.370;6.764;2024-02-21T06:36:27;21.13;;;8.93;;
26098;SDS011;13860;52.370;6.764;2024-02-21T06:39:34;21.00;;;8.73;;
26098;SDS011;13860;52.370;6.764;2024-02-21T06:42:42;19.50;;;8.95;;
26098;SDS011;13860;52.370;6.764;2024-02-21T06:45:50;24.45;;;9.38;;
26098;SDS011;13860;52.370;6.764;2024-02-21T06:48:59;18.10;;;9.35;;
26098;SDS011;13860;52.370;6.764;2024-02-21T06:52:07;19.13;;;8.65;;
26098;SDS011;13860;52.370;6.764;2024-02-21T06:55:13;18.15;;;8.27;;
26098;SDS011;13860;52.370;6.764;2024-02-21T06:58:21;23.27;;;9.32;;
26098;SDS011;13860;52.370;6.764;2024-02-21T07:01:26;24.58;;;9.23;;
26098;SDS011;13860;52.370;6.764;2024-02-21T07:04:37;24.10;;;9.90;;
26098;SDS011;13860;52.370;6.764;2024-02-21T07:07:42;21.05;;;9.88;;
26098;SDS011;13860;52.370;6.764;2024-02-21T07:10:50;27.15;;;9.02;;
26098;SDS011;13860;52.370;6.764;2024-02-21T07:13:56;35.30;;;12.27;;
26098;SDS011;13860;52.370;6.764;2024-02-21T07:17:03;17.38;;;7.88;;
26098;SDS011;13860;52.370;6.764;2024-02-21T07:20:12;17.40;;;8.27;;
26098;SDS011;13860;52.370;6.764;2024-02-21T07:23:20;23.08;;;7.90;;
26098;SDS011;13860;52.370;6.764;2024-02-21T07:26:25;18.15;;;7.97;;
26098;SDS011;13860;52.370;6.764;2024-02-21T07:29:32;19.90;;;8.23;;
26098;SDS011;13860;52.370;6.764;2024-02-21T07:32:38;19.45;;;9.18;;
26098;SDS011;13860;52.370;6.764;2024-02-21T07:35:48;19.02;;;7.70;;
26098;SDS011;13860;52.370;6.764;2024-02-21T07:38:54;15.32;;;6.88;;
26098;SDS011;13860;52.370;6.764;2024-02-21T07:42:02;15.07;;;6.82;;
26098;SDS011;13860;52.370;6.764;2024-02-21T07:45:08;18.85;;;7.68;;
26098;SDS011;13860;52.370;6.764;2024-02-21T07:48:16;17.63;;;8.48;;
26098;SDS011;13860;52.370;6.764;2024-02-21T07:51:30;13.15;;;6.82;;
26098;SDS011;13860;52.370;6.764;2024-02-21T07:54:37;19.08;;;5.82;;
26098;SDS011;13860;52.370;6.764;2024-02-21T07:57:45;17.88;;;7.57;;
26098;SDS011;13860;52.370;6.764;2024-02-21T08:00:53;22.40;;;7.22;;
26098;SDS011;13860;52.370;6.764;2024-02-21T08:03:59;17.60;;;6.53;;
26098;SDS011;13860;52.370;6.764;2024-02-21T08:07:10;21.42;;;6.93;;
26098;SDS011;13860;52.370;6.764;2024-02-21T08:10:16;22.02;;;8.15;;
26098;SDS011;13860;52.370;6.764;2024-02-21T08:13:23;23.05;;;8.50;;
26098;SDS011;13860;52.370;6.764;2024-02-21T08:16:31;21.20;;;8.30;;
26098;SDS011;13860;52.370;6.764;2024-02-21T08:19:38;16.40;;;7.60;;
26098;SDS011;13860;52.370;6.764;2024-02-21T08:22:46;24.77;;;8.10;;
26098;SDS011;13860;52.370;6.764;2024-02-21T08:25:54;24.15;;;7.65;;
26098;SDS011;13860;52.370;6.764;2024-02-21T08:29:00;20.30;;;8.32;;
26098;SDS011;13860;52.370;6.764;2024-02-21T08:32:07;19.67;;;8.10;;
26098;SDS011;13860;52.370;6.764;2024-02-21T08:35:13;22.60;;;7.97;;
26098;SDS011;13860;52.370;6.764;2024-02-21T08:38:25;24.00;;;8.00;;
26098;SDS011;13860;52.370;6.764;2024-02-21T08:41:30;26.23;;;8.05;;
26098;SDS011;13860;52.370;6.764;2024-02-21T08:44:58;20.35;;;8.38;;
26098;SDS011;13860;52.370;6.764;2024-02-21T08:48:04;20.40;;;8.20;;
26098;SDS011;13860;52.370;6.764;2024-02-21T08:51:13;23.23;;;8.23;;
26098;SDS011;13860;52.370;6.764;2024-02-21T08:54:21;16.10;;;7.25;;
26098;SDS011;13860;52.370;6.764;2024-02-21T08:57:29;19.83;;;7.80;;
26098;SDS011;13860;52.370;6.764;2024-02-21T09:00:38;17.60;;;8.00;;
26098;SDS011;13860;52.370;6.764;2024-02-21T09:03:45;29.67;;;8.52;;
26098;SDS011;13860;52.370;6.764;2024-02-21T09:06:55;19.77;;;6.93;;
26098;SDS011;13860;52.370;6.764;2024-02-21T09:10:06;24.95;;;7.78;;
26098;SDS011;13860;52.370;6.764;2024-02-21T09:13:13;30.20;;;6.63;;
26098;SDS011;13860;52.370;6.764;2024-02-21T09:16:20;17.42;;;6.93;;
26098;SDS011;13860;52.370;6.764;2024-02-21T09:19:26;18.77;;;6.65;;
26098;SDS011;13860;52.370;6.764;2024-02-21T09:22:34;17.67;;;6.57;;
26098;SDS011;13860;52.370;6.764;2024-02-21T09:25:44;21.58;;;7.13;;
26098;SDS011;13860;52.370;6.764;2024-02-21T09:28:52;20.05;;;7.00;;
26098;SDS011;13860;52.370;6.764;2024-02-21T09:31:58;21.30;;;6.68;;
26098;SDS011;13860;52.370;6.764;2024-02-21T09:35:07;20.55;;;7.47;;
26098;SDS011;13860;52.370;6.764;2024-02-21T09:38:14;18.42;;;7.25;;
26098;SDS011;13860;52.370;6.764;2024-02-21T09:41:25;23.45;;;7.25;;
26098;SDS011;13860;52.370;6.764;2024-02-21T09:44:33;15.85;;;6.53;;
26098;SDS011;13860;52.370;6.764;2024-02-21T09:47:50;21.95;;;7.90;;
26098;SDS011;13860;52.370;6.764;2024-02-21T09:51:03;20.33;;;7.18;;
26098;SDS011;13860;52.370;6.764;2024-02-21T09:54:11;19.02;;;7.00;;
26098;SDS011;13860;52.370;6.764;2024-02-21T09:57:20;19.48;;;6.70;;
26098;SDS011;13860;52.370;6.764;2024-02-21T10:00:29;16.08;;;6.68;;
26098;SDS011;13860;52.370;6.764;2024-02-21T10:03:35;15.05;;;7.18;;
26098;SDS011;13860;52.370;6.764;2024-02-21T10:06:43;13.10;;;6.28;;
26098;SDS011;13860;52.370;6.764;2024-02-21T10:09:49;21.27;;;6.70;;
26098;SDS011;13860;52.370;6.764;2024-02-21T10:13:10;25.15;;;7.70;;
26098;SDS011;13860;52.370;6.764;2024-02-21T10:16:28;17.60;;;6.88;;
26098;SDS011;13860;52.370;6.764;2024-02-21T10:19:36;15.77;;;6.82;;
26098;SDS011;13860;52.370;6.764;2024-02-21T10:22:42;19.80;;;7.32;;
26098;SDS011;13860;52.370;6.764;2024-02-21T10:25:50;15.85;;;6.13;;
26098;SDS011;13860;52.370;6.764;2024-02-21T10:28:58;16.60;;;6.15;;
26098;SDS011;13860;52.370;6.764;2024-02-21T10:32:09;19.80;;;6.05;;
26098;SDS011;13860;52.370;6.764;2024-02-21T10:35:24;15.30;;;6.82;;
26098;SDS011;13860;52.370;6.764;2024-02-21T10:38:34;15.88;;;6.50;;
26098;SDS011;13860;52.370;6.764;2024-02-21T10:41:40;14.82;;;6.63;;
26098;SDS011;13860;52.370;6.764;2024-02-21T10:44:51;12.52;;;5.88;;
26098;SDS011;13860;52.370;6.764;2024-02-21T10:48:00;16.27;;;6.00;;
26098;SDS011;13860;52.370;6.764;2024-02-21T10:51:15;17.48;;;6.18;;
26098;SDS011;13860;52.370;6.764;2024-02-21T10:54:30;15.82;;;6.78;;
26098;SDS011;13860;52.370;6.764;2024-02-21T11:00:54;11.63;;;5.07;;
26098;SDS011;13860;52.370;6.764;2024-02-21T11:04:02;10.80;;;5.50;;
26098;SDS011;13860;52.370;6.764;2024-02-21T11:07:10;14.13;;;6.57;;
26098;SDS011;13860;52.370;6.764;2024-02-21T11:10:22;11.98;;;4.88;;
26098;SDS011;13860;52.370;6.764;2024-02-21T11:13:31;16.48;;;5.07;;
26098;SDS011;13860;52.370;6.764;2024-02-21T11:16:44;12.82;;;5.75;;
26098;SDS011;13860;52.370;6.764;2024-02-21T11:19:50;11.38;;;5.45;;
26098;SDS011;13860;52.370;6.764;2024-02-21T11:22:58;14.18;;;4.20;;
26098;SDS011;13860;52.370;6.764;2024-02-21T11:26:05;12.55;;;4.20;;
26098;SDS011;13860;52.370;6.764;2024-02-21T11:29:13;8.15;;;3.83;;
26098;SDS011;13860;52.370;6.764;2024-02-21T11:32:31;10.15;;;4.65;;
26098;SDS011;13860;52.370;6.764;2024-02-21T11:35:38;9.20;;;3.70;;
26098;SDS011;13860;52.370;6.764;2024-02-21T11:38:44;10.07;;;3.35;;
26098;SDS011;13860;52.370;6.764;2024-02-21T11:42:01;12.30;;;3.50;;
26098;SDS011;13860;52.370;6.764;2024-02-21T11:45:08;8.07;;;2.60;;
26098;SDS011;13860;52.370;6.764;2024-02-21T11:48:19;3.33;;;2.42;;
26098;SDS011;13860;52.370;6.764;2024-02-21T11:51:25;4.80;;;2.40;;
26098;SDS011;13860;52.370;6.764;2024-02-21T11:54:33;4.90;;;2.40;;
26098;SDS011;13860;52.370;6.764;2024-02-21T11:57:38;5.43;;;2.42;;
26098;SDS011;13860;52.370;6.764;2024-02-21T12:00:49;7.20;;;2.35;;
26098;SDS011;13860;52.370;6.764;2024-02-21T12:03:57;3.92;;;2.78;;
26098;SDS011;13860;52.370;6.764;2024-02-21T12:07:04;7.68;;;3.60;;
26098;SDS011;13860;52.370;6.764;2024-02-21T12:10:11;4.80;;;3.28;;
26098;SDS011;13860;52.370;6.764;2024-02-21T12:13:19;7.93;;;3.30;;
26098;SDS011;13860;52.370;6.764;2024-02-21T12:16:27;7.28;;;3.10;;
26098;SDS011;13860;52.370;6.764;2024-02-21T12:19:38;8.93;;;3.70;;
26098;SDS011;13860;52.370;6.764;2024-02-21T12:22:44;9.80;;;4.28;;
26098;SDS011;13860;52.370;6.764;2024-02-21T12:25:51;7.50;;;4.30;;
26098;SDS011;13860;52.370;6.764;2024-02-21T12:28:57;7.88;;;3.58;;
26098;SDS011;13860;52.370;6.764;2024-02-21T12:32:05;14.98;;;3.97;;
26098;SDS011;13860;52.370;6.764;2024-02-21T12:35:13;8.07;;;4.53;;
26098;SDS011;13860;52.370;6.764;2024-02-21T12:38:21;13.48;;;4.40;;
26098;SDS011;13860;52.370;6.764;2024-02-21T12:41:27;12.85;;;4.47;;
26098;SDS011;13860;52.370;6.764;2024-02-21T12:44:36;15.18;;;4.95;;
26098;SDS011;13860;52.370;6.764;2024-02-21T12:47:41;14.82;;;4.63;;
26098;SDS011;13860;52.370;6.764;2024-02-21T12:50:51;15.23;;;3.97;;
26098;SDS011;13860;52.370;6.764;2024-02-21T12:53:57;12.73;;;4.47;;
26098;SDS011;13860;52.370;6.764;2024-02-21T12:57:06;12.18;;;4.22;;
26098;SDS011;13860;52.370;6.764;2024-02-21T13:00:12;8.45;;;3.97;;
26098;SDS011;13860;52.370;6.764;2024-02-21T13:03:20;12.18;;;3.97;;
26098;SDS011;13860;52.370;6.764;2024-02-21T13:06:29;9.65;;;4.20;;
26098;SDS011;13860;52.370;6.764;2024-02-21T13:09:36;11.00;;;4.40;;
26098;SDS011;13860;52.370;6.764;2024-02-21T13:12:42;13.75;;;4.50;;
26098;SDS011;13860;52.370;6.764;2024-02-21T13:15:50;10.38;;;4.05;;
26098;SDS011;13860;52.370;6.764;2024-02-21T13:18:55;10.23;;;4.25;;
26098;SDS011;13860;52.370;6.764;2024-02-21T13:22:06;14.88;;;4.80;;
26098;SDS011;13860;52.370;6.764;2024-02-21T13:25:11;16.48;;;3.80;;
26098;SDS011;13860;52.370;6.764;2024-02-21T13:28:22;8.63;;;3.95;;
26098;SDS011;13860;52.370;6.764;2024-02-21T13:31:30;14.57;;;4.10;;
26098;SDS011;13860;52.370;6.764;2024-02-21T13:34:38;10.63;;;4.47;;
26098;SDS011;13860;52.370;6.764;2024-02-21T13:37:46;10.95;;;3.95;;
26098;SDS011;13860;52.370;6.764;2024-02-21T13:40:54;10.85;;;4.07;;
26098;SDS011;13860;52.370;6.764;2024-02-21T13:44:03;9.65;;;3.95;;
26098;SDS011;13860;52.370;6.764;2024-02-21T13:47:11;11.90;;;3.22;;
26098;SDS011;13860;52.370;6.764;2024-02-21T13:50:19;17.48;;;4.38;;
26098;SDS011;13860;52.370;6.764;2024-02-21T13:53:34;11.13;;;4.57;;
26098;SDS011;13860;52.370;6.764;2024-02-21T13:56:40;16.10;;;4.32;;
26098;SDS011;13860;52.370;6.764;2024-02-21T13:59:47;13.38;;;4.55;;
26098;SDS011;13860;52.370;6.764;2024-02-21T14:02:53;8.90;;;3.83;;
26098;SDS011;13860;52.370;6.764;2024-02-21T14:06:02;9.63;;;3.60;;
26098;SDS011;13860;52.370;6.764;2024-02-21T14:09:10;15.55;;;3.35;;
26098;SDS011;13860;52.370;6.764;2024-02-21T14:12:18;9.20;;;3.75;;
26098;SDS011;13860;52.370;6.764;2024-02-21T14:15:24;12.32;;;3.72;;
26098;SDS011;13860;52.370;6.764;2024-02-21T14:18:31;10.35;;;3.78;;
26098;SDS011;13860;52.370;6.764;2024-02-21T14:21:37;15.05;;;4.63;;
26098;SDS011;13860;52.370;6.764;2024-02-21T14:24:47;12.93;;;3.58;;
26098;SDS011;13860;52.370;6.764;2024-02-21T14:27:52;10.15;;;3.55;;
26098;SDS011;13860;52.370;6.764;2024-02-21T14:31:00;10.57;;;3.60;;
26098;SDS011;13860;52.370;6.764;2024-02-21T14:34:08;10.43;;;3.95;;
26098;SDS011;13860;52.370;6.764;2024-02-21T14:37:16;11.57;;;3.78;;
26098;SDS011;13860;52.370;6.764;2024-02-21T14:40:24;12.43;;;3.50;;
26098;SDS011;13860;52.370;6.764;2024-02-21T14:43:34;10.73;;;4.22;;
26098;SDS011;13860;52.370;6.764;2024-02-21T14:46:39;9.43;;;3.35;;
26098;SDS011;13860;52.370;6.764;2024-02-21T14:49:47;9.57;;;3.88;;
26098;SDS011;13860;52.370;6.764;2024-02-21T14:52:52;13.98;;;3.70;;
26098;SDS011;13860;52.370;6.764;2024-02-21T14:56:03;11.27;;;3.55;;
26098;SDS011;13860;52.370;6.764;2024-02-21T14:59:09;17.27;;;4.10;;
26098;SDS011;13860;52.370;6.764;2024-02-21T15:02:28;16.48;;;3.63;;
26098;SDS011;13860;52.370;6.764;2024-02-21T15:05:33;9.25;;;3.65;;
26098;SDS011;13860;52.370;6.764;2024-02-21T15:08:43;15.77;;;3.75;;
26098;SDS011;13860;52.370;6.764;2024-02-21T15:11:53;12.73;;;3.50;;
26098;SDS011;13860;52.370;6.764;2024-02-21T15:15:00;12.68;;;3.33;;
26098;SDS011;13860;52.370;6.764;2024-02-21T15:18:06;13.20;;;4.10;;
26098;SDS011;13860;52.370;6.764;2024-02-21T15:21:14;18.27;;;3.75;;
26098;SDS011;13860;52.370;6.764;2024-02-21T15:24:20;13.40;;;4.05;;
26098;SDS011;13860;52.370;6.764;2024-02-21T15:27:31;12.57;;;3.40;;
26098;SDS011;13860;52.370;6.764;2024-02-21T15:30:41;12.90;;;3.70;;
26098;SDS011;13860;52.370;6.764;2024-02-21T15:33:48;9.95;;;3.03;;
26098;SDS011;13860;52.370;6.764;2024-02-21T15:36:55;10.10;;;3.42;;
26098;SDS011;13860;52.370;6.764;2024-02-21T15:40:03;15.13;;;3.40;;
26098;SDS011;13860;52.370;6.764;2024-02-21T15:43:13;14.15;;;3.40;;
26098;SDS011;13860;52.370;6.764;2024-02-21T15:46:21;10.23;;;3.10;;
26098;SDS011;13860;52.370;6.764;2024-02-21T15:49:27;15.35;;;4.20;;
26098;SDS011;13860;52.370;6.764;2024-02-21T15:52:35;14.52;;;2.90;;
26098;SDS011;13860;52.370;6.764;2024-02-21T15:55:41;10.27;;;3.58;;
26098;SDS011;13860;52.370;6.764;2024-02-21T15:58:52;13.23;;;3.72;;
26098;SDS011;13860;52.370;6.764;2024-02-21T16:01:58;26.42;;;5.85;;
26098;SDS011;13860;52.370;6.764;2024-02-21T16:05:07;13.63;;;4.80;;
26098;SDS011;13860;52.370;6.764;2024-02-21T16:08:14;9.23;;;3.83;;
26098;SDS011;13860;52.370;6.764;2024-02-21T16:11:23;12.25;;;3.65;;
26098;SDS011;13860;52.370;6.764;2024-02-21T16:14:32;10.93;;;4.10;;
26098;SDS011;13860;52.370;6.764;2024-02-21T16:17:41;15.48;;;3.97;;
26098;SDS011;13860;52.370;6.764;2024-02-21T16:20:47;10.25;;;3.85;;
26098;SDS011;13860;52.370;6.764;2024-02-21T16:23:54;11.30;;;3.83;;
26098;SDS011;13860;52.370;6.764;2024-02-21T16:27:00;7.53;;;3.15;;
26098;SDS011;13860;52.370;6.764;2024-02-21T16:30:16;19.05;;;3.60;;
26098;SDS011;13860;52.370;6.764;2024-02-21T16:33:22;15.68;;;4.00;;
26098;SDS011;13860;52.370;6.764;2024-02-21T16:36:29;9.88;;;3.85;;
26098;SDS011;13860;52.370;6.764;2024-02-21T16:39:35;14.95;;;3.67;;
26098;SDS011;13860;52.370;6.764;2024-02-21T16:42:42;9.60;;;2.97;;
26098;SDS011;13860;52.370;6.764;2024-02-21T16:45:50;8.52;;;3.30;;
26098;SDS011;13860;52.370;6.764;2024-02-21T16:48:59;14.32;;;3.17;;
26098;SDS011;13860;52.370;6.764;2024-02-21T16:52:05;9.43;;;3.45;;
26098;SDS011;13860;52.370;6.764;2024-02-21T16:55:13;12.05;;;3.90;;
26098;SDS011;13860;52.370;6.764;2024-02-21T16:58:18;8.38;;;3.22;;
26098;SDS011;13860;52.370;6.764;2024-02-21T17:01:34;11.52;;;3.45;;
26098;SDS011;13860;52.370;6.764;2024-02-21T17:04:42;10.95;;;3.83;;
26098;SDS011;13860;52.370;6.764;2024-02-21T17:07:51;10.32;;;4.53;;
26098;SDS011;13860;52.370;6.764;2024-02-21T17:10:57;9.25;;;4.50;;
26098;SDS011;13860;52.370;6.764;2024-02-21T17:14:05;17.90;;;4.72;;
26098;SDS011;13860;52.370;6.764;2024-02-21T17:17:13;14.60;;;5.07;;
26098;SDS011;13860;52.370;6.764;2024-02-21T17:20:21;17.70;;;4.82;;
26098;SDS011;13860;52.370;6.764;2024-02-21T17:23:26;12.65;;;4.40;;
26098;SDS011;13860;52.370;6.764;2024-02-21T17:26:35;10.90;;;4.43;;
26098;SDS011;13860;52.370;6.764;2024-02-21T17:29:41;8.18;;;3.80;;
26098;SDS011;13860;52.370;6.764;2024-02-21T17:32:51;8.70;;;3.55;;
26098;SDS011;13860;52.370;6.764;2024-02-21T17:35:57;8.38;;;3.08;;
26098;SDS011;13860;52.370;6.764;2024-02-21T17:39:05;10.48;;;3.50;;
26098;SDS011;13860;52.370;6.764;2024-02-21T17:42:11;9.27;;;3.35;;
26098;SDS011;13860;52.370;6.764;2024-02-21T17:45:19;16.88;;;4.50;;
26098;SDS011;13860;52.370;6.764;2024-02-21T17:48:27;9.75;;;3.50;;
26098;SDS011;13860;52.370;6.764;2024-02-21T17:51:35;12.73;;;3.83;;
26098;SDS011;13860;52.370;6.764;2024-02-21T17:54:43;8.77;;;3.00;;
26098;SDS011;13860;52.370;6.764;2024-02-21T17:57:51;8.68;;;3.85;;
26098;SDS011;13860;52.370;6.764;2024-02-21T18:00:56;6.82;;;2.90;;
26098;SDS011;13860;52.370;6.764;2024-02-21T18:04:08;10.57;;;3.33;;
26098;SDS011;13860;52.370;6.764;2024-02-21T18:07:14;6.47;;;3.10;;
26098;SDS011;13860;52.370;6.764;2024-02-21T18:10:23;8.63;;;2.83;;
26098;SDS011;13860;52.370;6.764;2024-02-21T18:13:28;9.63;;;3.10;;
26098;SDS011;13860;52.370;6.764;2024-02-21T18:16:36;6.88;;;2.85;;
26098;SDS011;13860;52.370;6.764;2024-02-21T18:19:44;9.25;;;2.88;;
26098;SDS011;13860;52.370;6.764;2024-02-21T18:22:52;11.02;;;3.08;;
26098;SDS011;13860;52.370;6.764;2024-02-21T18:25:58;10.68;;;3.38;;
26098;SDS011;13860;52.370;6.764;2024-02-21T18:29:05;13.38;;;2.97;;
26098;SDS011;13860;52.370;6.764;2024-02-21T18:32:14;9.43;;;2.90;;
26098;SDS011;13860;52.370;6.764;2024-02-21T18:35:24;9.40;;;3.25;;
26098;SDS011;13860;52.370;6.764;2024-02-21T18:38:30;13.70;;;3.45;;